Bradshaw Army Airfield Camp Pohakuloa US
ICAO: PHSF
IATA:
Category: Medium
Scheduled Services:

Elevation: 6190 ft
TransAlt. 18000 ft.

Airport Communications:
HONOLULU CNTR:126
ATIS:124.7
CTAF:126.3
RANGE:38.3
PMSV METRO:122.75
HONOLULU RDO:25.54
TWR:41.5

PHSF Zoom In..

If you have problems with the map follow the link
https://www.worldairports.se/pages/airport.php?
ICAO=PHSF

Runways:

(A) RW 09 length 3695 ft width 90 ft
---- / hdg 91

(B) RW 27 length 3695 ft width 90 ft
---- / hdg 271

Location; PHSF
Day. 21 / Time. 19.58 Zulu
* Altimeter: 30.38
* Temperature: 16° c. 60.8°f.
* Wind from: 270° Speed 08 kn.
Dewpoint: 06° c.
Visibility: 10 Statute Miles.
Clouds: Clear (automated report).

PHSF 211958Z AUTO 27008KT 10SM CLR 16/06 A3038 RMK AO2 SLP192 T01610057 TSNO $


Wind From 270°
Speed 08 kn.

 
 
jpsmedia worldairports.se 2020   terms of use